Time;durP1;ratioP1;P1;durP2;ratioP2;P2;SDS_P1;SDS_P2;PMS_P1;PMS_P2;Temp;Humidity;BMP_temperature;BMP_pressure;BME280_temperature;BME280_humidity;BME280_pressure;Samples;Min_cycle;Max_cycle;Signal;HPM_P1;HPM_P2
2021/12/27 00:01:13;;;;;;;;;;;;;;;-1.66;49.47;100611.61;1738267;81;20206;-60
2021/12/27 00:03:40;;;;;;;;;;;;;;;-1.66;49.22;100614.62;1734095;82;20222;-69
2021/12/27 00:06:09;;;;;;;;;;;;;;;-1.65;49.17;100612.42;1726492;82;21144;-59
2021/12/27 00:08:34;;;;;;;;;;;;;;;-1.90;49.77;100624.14;1727907;82;20266;-60
2021/12/27 00:11:00;;;;;;;;;;;;;;;-1.83;49.95;100630.98;1727746;82;21130;-71
2021/12/27 00:13:31;;;;;;;;;;;;;;;-2.03;50.16;100632.20;1728911;82;20218;-60
2021/12/27 00:15:59;;;;;;;;;;;;;;;-1.87;49.90;100627.80;1708551;82;20093;-71
2021/12/27 00:18:26;;;;;;;;;;;;;;;-1.91;49.71;100628.90;1726579;82;20156;-63
2021/12/27 00:20:52;;;;;;;;;;;;;;;-1.99;49.76;100622.16;1728478;82;20538;-60
2021/12/27 00:23:19;;;;;;;;;;;;;;;-2.16;50.21;100614.69;1728260;82;21150;-73
2021/12/27 00:25:49;;;;;;;;;;;;;;;-2.19;50.59;100614.90;1726935;82;20217;-60
2021/12/27 00:28:16;;;;;;;;;;;;;;;-2.15;50.98;100615.08;1728739;82;20222;-60
2021/12/27 00:30:42;;;;;;;;;;;;;;;-2.15;51.09;100617.63;1727306;82;20210;-62
2021/12/27 00:33:08;;;;;;;;;;;;;;;-1.92;51.02;100613.22;1728799;81;20446;-68
2021/12/27 00:35:36;;;;;;;;;;;;;;;-1.74;50.97;100617.20;1704437;83;21140;-62
2021/12/27 00:38:03;;;;;;;;;;;;;;;-1.57;51.00;100626.81;1740843;81;20129;-61
2021/12/27 00:40:30;;;;;;;;;;;;;;;-1.50;50.87;100626.80;1752109;81;20235;-63
2021/12/27 00:42:56;;;;;;;;;;;;;;;-1.51;50.91;100626.45;1753314;81;20219;-66
2021/12/27 00:45:22;;;;;;;;;;;;;;;-1.65;50.87;100626.02;1754075;81;20092;-63
2021/12/27 00:47:49;;;;;;;;;;;;;;;-1.51;50.62;100623.89;1752584;81;22203;-62
2021/12/27 00:50:16;;;;;;;;;;;;;;;-2.17;51.20;100630.93;1753118;81;21049;-64
2021/12/27 00:52:42;;;;;;;;;;;;;;;-2.41;51.79;100628.12;1747382;80;20245;-59
2021/12/27 00:55:10;;;;;;;;;;;;;;;-2.48;51.94;100626.38;1754456;81;20192;-62
2021/12/27 00:57:38;;;;;;;;;;;;;;;-2.67;52.00;100627.91;1753236;81;20171;-65
2021/12/27 01:00:06;;;;;;;;;;;;;;;-2.63;52.01;100631.91;1758103;81;22587;-65
2021/12/27 01:02:36;;;;;;;;;;;;;;;-2.73;52.08;100639.73;1758568;79;20329;-61
2021/12/27 01:05:03;;;;;;;;;;;;;;;-2.59;51.95;100638.48;1760293;80;20225;-62
2021/12/27 01:07:30;;;;;;;;;;;;;;;-2.48;51.92;100642.97;1761757;80;20191;-63
2021/12/27 01:15:32;;;;;;;;;;;;;;;-2.27;50.73;100635.33;1759355;81;20167;-62
2021/12/27 01:17:39;;;;;;;;;;;;;;;-2.18;50.68;100633.95;1757917;81;20115;-63
2021/12/27 01:20:08;;;;;;;;;;;;;;;-2.01;50.53;100635.04;1763238;81;20203;-60
2021/12/27 01:22:36;;;;;;;;;;;;;;;-1.58;50.00;100636.69;1763832;81;20131;-62
2021/12/27 01:25:03;;;;;;;;;;;;;;;-1.48;49.64;100640.29;1760035;81;21132;-73
2021/12/27 01:27:31;;;;;;;;;;;;;;;-1.44;49.48;100640.92;1763622;80;21025;-67
2021/12/27 01:29:58;;;;;;;;;;;;;;;-1.80;50.13;100636.73;1763177;80;20150;-60
2021/12/27 01:32:30;;;;;;;;;;;;;;;-1.62;49.95;100637.80;1763344;80;20158;-60
2021/12/27 01:34:54;;;;;;;;;;;;;;;-1.85;50.05;100643.86;1761822;81;20120;-74
2021/12/27 01:37:20;;;;;;;;;;;;;;;-1.88;50.33;100652.17;1762922;81;21179;-60
2021/12/27 01:39:47;;;;;;;;;;;;;;;-1.84;50.27;100651.89;1762534;80;21464;-71
2021/12/27 01:42:13;;;;;;;;;;;;;;;-2.08;50.48;100652.11;1762862;81;20379;-59
2021/12/27 01:44:40;;;;;;;;;;;;;;;-2.10;50.59;100647.08;1759671;81;20139;-74
2021/12/27 01:47:12;;;;;;;;;;;;;;;-2.01;50.45;100649.09;1762676;81;20201;-61
2021/12/27 01:49:37;;;;;;;;;;;;;;;-1.90;50.14;100654.80;1758686;81;21724;-73
2021/12/27 01:52:08;;;;;;;;;;;;;;;-1.94;50.20;100656.37;1762224;81;20086;-59
2021/12/27 01:54:36;;;;;;;;;;;;;;;-1.61;49.79;100656.05;1762798;81;20140;-60
2021/12/27 01:57:03;;;;;;;;;;;;;;;-1.81;49.59;100654.72;1760261;81;20182;-60
2021/12/27 01:59:31;;;;;;;;;;;;;;;-1.67;49.64;100653.39;1763230;80;20171;-60
2021/12/27 02:01:57;;;;;;;;;;;;;;;-2.46;50.90;100662.86;1761470;81;21334;-60
2021/12/27 02:04:23;;;;;;;;;;;;;;;-2.64;51.50;100662.18;1763378;80;21043;-59
2021/12/27 02:06:50;;;;;;;;;;;;;;;-2.65;51.52;100667.36;1761882;81;20149;-74
2021/12/27 02:09:26;;;;;;;;;;;;;;;-2.51;51.85;100669.48;1763108;80;20957;-61
2021/12/27 02:11:50;;;;;;;;;;;;;;;-2.51;52.07;100665.66;1758196;80;20169;-72
2021/12/27 02:14:17;;;;;;;;;;;;;;;-2.66;52.55;100664.45;1761798;81;22245;-59
2021/12/27 02:16:44;;;;;;;;;;;;;;;-2.90;53.21;100663.66;1758688;80;20539;-72
2021/12/27 02:19:10;;;;;;;;;;;;;;;-2.95;53.84;100670.77;1762307;81;21021;-59
2021/12/27 02:21:36;;;;;;;;;;;;;;;-2.58;53.50;100680.13;1762659;80;20182;-75
2021/12/27 02:24:05;;;;;;;;;;;;;;;-2.48;52.96;100688.45;1761395;81;20209;-64
2021/12/27 02:26:31;;;;;;;;;;;;;;;-2.75;52.66;100690.86;1755851;81;21154;-73
2021/12/27 02:28:58;;;;;;;;;;;;;;;-2.75;52.00;100693.41;1760500;81;20087;-61
2021/12/27 02:31:27;;;;;;;;;;;;;;;-3.29;52.20;100690.48;1762209;81;20398;-61
2021/12/27 02:33:53;;;;;;;;;;;;;;;-3.47;52.20;100693.56;1759956;81;20227;-66
2021/12/27 02:36:21;;;;;;;;;;;;;;;-3.60;52.60;100694.28;1760366;81;20741;-61
2021/12/27 02:38:47;;;;;;;;;;;;;;;-3.79;53.12;100702.08;1755906;81;21161;-60
2021/12/27 02:41:14;;;;;;;;;;;;;;;-3.79;53.38;100699.53;1760978;81;20183;-59
2021/12/27 02:43:42;;;;;;;;;;;;;;;-3.74;53.51;100702.22;1760153;80;20107;-71
2021/12/27 02:46:10;;;;;;;;;;;;;;;-3.38;53.57;100702.89;1759822;81;20488;-60
2021/12/27 02:48:39;;;;;;;;;;;;;;;-3.30;53.62;100705.38;1759810;81;20504;-74
2021/12/27 02:51:06;;;;;;;;;;;;;;;-3.17;53.68;100717.48;1760752;81;21109;-59
2021/12/27 02:53:33;;;;;;;;;;;;;;;-3.19;53.58;100728.56;1760254;80;20422;-62
2021/12/27 02:55:59;;;;;;;;;;;;;;;-3.11;53.20;100731.97;1762207;81;20144;-61
2021/12/27 02:58:30;;;;;;;;;;;;;;;-3.20;52.94;100726.93;1763391;80;20509;-62
2021/12/27 03:01:13;;;;;;;;;;;;;;;-3.12;52.54;100725.70;1760143;81;20138;-59
2021/12/27 03:03:39;;;;;;;;;;;;;;;-3.17;52.29;100727.69;1753080;81;21872;-62
2021/12/27 03:06:08;;;;;;;;;;;;;;;-3.43;52.40;100735.00;1753343;81;20163;-62
2021/12/27 03:08:35;;;;;;;;;;;;;;;-3.58;52.76;100734.53;1752457;81;20092;-60
2021/12/27 03:11:02;;;;;;;;;;;;;;;-3.27;52.51;100729.44;1723192;83;20216;-61
2021/12/27 03:13:32;;;;;;;;;;;;;;;-2.59;51.47;100730.36;1759824;81;20504;-72
2021/12/27 03:16:01;;;;;;;;;;;;;;;-2.49;50.97;100731.95;1756386;81;21110;-61
2021/12/27 03:18:28;;;;;;;;;;;;;;;-2.28;50.63;100734.52;1759133;80;20175;-65
2021/12/27 03:20:54;;;;;;;;;;;;;;;-2.46;50.38;100740.25;1759023;81;20453;-61
2021/12/27 03:23:21;;;;;;;;;;;;;;;-2.31;49.93;100733.45;1759858;81;20145;-62
2021/12/27 03:25:48;;;;;;;;;;;;;;;-3.11;50.31;100746.45;1757518;81;20163;-62
2021/12/27 03:28:14;;;;;;;;;;;;;;;-3.31;50.65;100745.80;1759359;81;21090;-77
2021/12/27 03:30:41;;;;;;;;;;;;;;;-3.12;50.50;100743.55;1751904;80;20190;-61
2021/12/27 03:33:12;;;;;;;;;;;;;;;-3.38;50.52;100753.41;1759951;81;20141;-64
2021/12/27 03:35:40;;;;;;;;;;;;;;;-3.38;50.73;100757.23;1757276;81;20088;-67
2021/12/27 03:38:08;;;;;;;;;;;;;;;-3.49;50.69;100759.06;1754487;79;20207;-75
2021/12/27 03:40:36;;;;;;;;;;;;;;;-3.47;51.16;100763.64;1759240;81;21133;-60
2021/12/27 03:43:02;;;;;;;;;;;;;;;-3.36;50.73;100764.36;1758100;81;20092;-61
2021/12/27 03:45:37;;;;;;;;;;;;;;;-3.38;50.25;100767.42;1758337;81;20168;-68
2021/12/27 03:48:05;;;;;;;;;;;;;;;-3.42;49.78;100772.31;1758273;81;20220;-73
2021/12/27 03:50:33;;;;;;;;;;;;;;;-3.56;49.33;100764.14;1740696;81;20271;-63
2021/12/27 03:52:59;;;;;;;;;;;;;;;-3.63;48.53;100765.81;1718623;83;22102;-64
2021/12/27 03:55:26;;;;;;;;;;;;;;;-3.87;47.99;100776.79;1750954;81;20113;-62
2021/12/27 03:57:55;;;;;;;;;;;;;;;-3.85;47.76;100777.55;1751288;81;20309;-74
2021/12/27 04:02:56;;;;;;;;;;;;;;;-4.10;48.13;100782.58;1661599;86;20510;-60
2021/12/27 04:05:22;;;;;;;;;;;;;;;-4.29;48.87;100776.76;1674975;84;21180;-76
2021/12/27 04:07:57;;;;;;;;;;;;;;;-4.45;50.08;100773.69;1676354;84;20230;-76
2021/12/27 04:10:17;;;;;;;;;;;;;;;-4.39;50.69;100784.03;1674364;84;20200;-60
2021/12/27 04:12:46;;;;;;;;;;;;;;;-4.42;50.95;100785.45;1674919;84;20124;-63
2021/12/27 04:15:12;;;;;;;;;;;;;;;-4.34;50.33;100792.26;1674435;84;20132;-64
2021/12/27 04:17:38;;;;;;;;;;;;;;;-4.44;50.01;100788.50;1675131;84;21239;-63
2021/12/27 04:20:07;;;;;;;;;;;;;;;-4.37;49.69;100785.22;1673950;84;20231;-60
2021/12/27 04:22:34;;;;;;;;;;;;;;;-4.44;49.50;100784.69;1674358;84;20268;-63
2021/12/27 04:25:01;;;;;;;;;;;;;;;-4.45;48.97;100784.32;1674945;84;20168;-61
2021/12/27 04:27:27;;;;;;;;;;;;;;;-4.35;48.38;100790.63;1675153;84;20426;-76
2021/12/27 04:29:53;;;;;;;;;;;;;;;-4.30;47.87;100796.30;1676878;84;21583;-76
2021/12/27 04:32:20;;;;;;;;;;;;;;;-4.29;47.52;100797.94;1674301;84;20183;-61
2021/12/27 04:34:46;;;;;;;;;;;;;;;-4.45;47.61;100799.13;1675638;84;20144;-61
2021/12/27 04:37:13;;;;;;;;;;;;;;;-4.31;47.96;100797.20;1675685;84;20145;-61
2021/12/27 04:39:39;;;;;;;;;;;;;;;-4.04;48.15;100800.11;1675503;84;20100;-63
2021/12/27 04:42:06;;;;;;;;;;;;;;;-3.94;48.12;100801.31;1637634;86;21063;-77
2021/12/27 04:44:32;;;;;;;;;;;;;;;-3.86;47.88;100808.98;1675900;84;20235;-61
2021/12/27 04:46:59;;;;;;;;;;;;;;;-3.84;47.44;100822.03;1675064;84;20533;-63
2021/12/27 04:49:25;;;;;;;;;;;;;;;-3.96;47.10;100829.84;1674683;84;20088;-60
2021/12/27 04:51:54;;;;;;;;;;;;;;;-3.92;46.44;100836.42;1675379;84;20154;-64
2021/12/27 04:54:20;;;;;;;;;;;;;;;-4.27;45.99;100836.87;1674277;84;21101;-60
2021/12/27 04:56:47;;;;;;;;;;;;;;;-4.42;45.84;100829.98;1671072;84;20215;-63
2021/12/27 04:59:13;;;;;;;;;;;;;;;-4.73;46.07;100832.70;1673748;84;20137;-61
2021/12/27 05:01:40;;;;;;;;;;;;;;;-4.77;45.98;100835.42;1674788;84;20211;-61
2021/12/27 05:04:06;;;;;;;;;;;;;;;-4.79;46.26;100835.96;1672995;84;20230;-76
2021/12/27 05:06:32;;;;;;;;;;;;;;;-4.86;46.27;100839.22;1673109;84;21125;-62
2021/12/27 05:09:00;;;;;;;;;;;;;;;-4.65;46.10;100835.70;1674057;84;20486;-61
2021/12/27 05:11:26;;;;;;;;;;;;;;;-4.72;46.33;100845.78;1674047;84;20101;-61
2021/12/27 05:13:55;;;;;;;;;;;;;;;-4.82;46.91;100848.36;1674371;84;20234;-62
2021/12/27 05:16:23;;;;;;;;;;;;;;;-4.47;47.06;100858.19;1674237;84;20541;-63
2021/12/27 05:18:49;;;;;;;;;;;;;;;-4.37;47.55;100862.39;1674560;84;21132;-63
2021/12/27 05:21:15;;;;;;;;;;;;;;;-3.94;47.23;100864.98;1674617;84;20421;-60
2021/12/27 05:23:43;;;;;;;;;;;;;;;-3.63;46.87;100863.45;1674166;84;20127;-62
2021/12/27 05:26:10;;;;;;;;;;;;;;;-3.22;45.65;100856.66;1674934;84;20196;-75
2021/12/27 05:28:36;;;;;;;;;;;;;;;-3.13;44.75;100866.40;1673473;84;20452;-61
2021/12/27 05:31:03;;;;;;;;;;;;;;;-3.18;44.08;100864.55;1672599;84;21172;-61
2021/12/27 05:33:30;;;;;;;;;;;;;;;-3.56;44.02;100871.59;1674508;84;20144;-64
2021/12/27 05:35:56;;;;;;;;;;;;;;;-3.62;44.25;100877.02;1674824;84;20096;-62
2021/12/27 05:38:23;;;;;;;;;;;;;;;-3.40;43.88;100872.94;1673560;84;20430;-75
2021/12/27 05:40:49;;;;;;;;;;;;;;;-3.35;43.25;100880.70;1674279;84;20232;-60
2021/12/27 05:43:16;;;;;;;;;;;;;;;-3.20;43.36;100888.02;1673792;85;21152;-61
2021/12/27 05:45:42;;;;;;;;;;;;;;;-2.87;43.46;100893.55;1673738;85;20149;-61
2021/12/27 05:48:08;;;;;;;;;;;;;;;-2.41;43.24;100893.16;1674715;84;20433;-61
2021/12/27 05:50:34;;;;;;;;;;;;;;;-1.81;42.68;100886.80;1672682;84;20223;-72
2021/12/27 05:53:02;;;;;;;;;;;;;;;-1.40;42.03;100891.67;1671079;85;20522;-60
2021/12/27 05:55:29;;;;;;;;;;;;;;;-1.10;41.99;100889.88;1674704;84;21144;-60
2021/12/27 05:57:56;;;;;;;;;;;;;;;-0.46;41.74;100893.21;1673964;84;20559;-60
2021/12/27 06:00:25;;;;;;;;;;;;;;;0.27;41.15;100887.68;1674607;84;20097;-62
2021/12/27 06:02:53;;;;;;;;;;;;;;;0.67;40.29;100899.47;1689786;83;20302;-61
2021/12/27 06:05:19;;;;;;;;;;;;;;;0.99;39.22;100904.17;1649996;85;20336;-61
2021/12/27 06:07:46;;;;;;;;;;;;;;;0.91;38.75;100910.27;1703501;83;21150;-61
2021/12/27 06:10:12;;;;;;;;;;;;;;;1.19;38.44;100907.93;1700908;84;20579;-61
2021/12/27 06:12:40;;;;;;;;;;;;;;;1.41;38.04;100914.97;1701651;83;20404;-73
2021/12/27 06:15:07;;;;;;;;;;;;;;;1.65;37.44;100915.79;1702713;83;21252;-61
2021/12/27 06:17:37;;;;;;;;;;;;;;;1.64;37.07;100919.77;1701753;83;20083;-63
2021/12/27 06:20:06;;;;;;;;;;;;;;;1.61;37.62;100919.50;1702003;83;22264;-59
2021/12/27 06:22:34;;;;;;;;;;;;;;;2.31;36.64;100918.74;1649453;85;20092;-70
2021/12/27 06:25:03;;;;;;;;;;;;;;;2.37;36.62;100918.27;1711124;82;20640;-59
2021/12/27 06:27:31;;;;;;;;;;;;;;;2.66;36.83;100918.67;1710534;82;20191;-60
2021/12/27 06:30:01;;;;;;;;;;;;;;;2.73;36.22;100916.91;1711578;82;20138;-61
2021/12/27 06:32:27;;;;;;;;;;;;;;;2.80;36.21;100918.09;1709796;82;21165;-72
2021/12/27 06:34:53;;;;;;;;;;;;;;;2.97;35.69;100929.22;1710376;82;20480;-61
2021/12/27 06:37:19;;;;;;;;;;;;;;;3.28;35.35;100930.72;1707653;82;20335;-60
2021/12/27 06:39:46;;;;;;;;;;;;;;;3.52;35.67;100933.13;1711728;82;20115;-60
2021/12/27 06:42:13;;;;;;;;;;;;;;;3.74;35.08;100934.84;1710257;82;20147;-65
2021/12/27 06:44:39;;;;;;;;;;;;;;;4.35;34.40;100936.33;1710986;82;21140;-72
2021/12/27 06:47:06;;;;;;;;;;;;;;;4.37;34.70;100943.48;1648932;85;20136;-63
2021/12/27 06:49:32;;;;;;;;;;;;;;;4.36;34.65;100941.86;1699599;83;20163;-62
2021/12/27 06:51:59;;;;;;;;;;;;;;;4.49;34.54;100949.41;1700937;83;20150;-60
2021/12/27 06:54:26;;;;;;;;;;;;;;;4.82;34.13;100947.08;1702193;83;20083;-67
2021/12/27 06:56:54;;;;;;;;;;;;;;;4.93;34.01;100948.29;1702165;83;22533;-71
2021/12/27 06:59:20;;;;;;;;;;;;;;;5.25;33.84;100950.70;1700908;82;20146;-60
2021/12/27 07:01:47;;;;;;;;;;;;;;;5.89;33.42;100948.66;1702015;83;20099;-60
2021/12/27 07:04:13;;;;;;;;;;;;;;;5.98;33.04;100942.20;1701543;83;20530;-64
2021/12/27 07:06:39;;;;;;;;;;;;;;;6.01;33.27;100946.30;1647813;85;20151;-64
2021/12/27 07:09:06;;;;;;;;;;;;;;;6.26;32.99;100937.98;1690981;84;21204;-72
2021/12/27 07:11:35;;;;;;;;;;;;;;;6.49;32.70;100941.08;1678793;84;20100;-61
2021/12/27 07:14:03;;;;;;;;;;;;;;;6.61;32.66;100943.03;1700460;83;20135;-61
2021/12/27 07:16:29;;;;;;;;;;;;;;;6.84;32.56;100947.39;1647352;85;20148;-72
2021/12/27 07:18:55;;;;;;;;;;;;;;;7.52;32.43;100947.88;1668270;84;20205;-63
2021/12/27 07:21:22;;;;;;;;;;;;;;;8.08;32.11;100949.07;1702737;83;21157;-72
2021/12/27 07:23:50;;;;;;;;;;;;;;;8.48;31.45;100947.27;1704014;83;20248;-63
2021/12/27 07:26:16;;;;;;;;;;;;;;;8.94;30.74;100951.30;1701699;83;20198;-61
2021/12/27 07:28:43;;;;;;;;;;;;;;;8.87;30.56;100954.19;1701940;83;20728;-72
2021/12/27 07:31:10;;;;;;;;;;;;;;;9.14;30.22;100954.97;1701628;83;20381;-61
2021/12/27 07:33:36;;;;;;;;;;;;;;;8.41;30.73;100953.59;1700841;83;21179;-65
2021/12/27 07:36:05;;;;;;;;;;;;;;;8.14;31.18;100949.75;1701743;83;20242;-61
2021/12/27 07:38:32;;;;;;;;;;;;;;;8.45;31.14;100944.52;1701461;83;20147;-62
2021/12/27 07:41:00;;;;;;;;;;;;;;;8.71;31.08;100943.68;1711710;82;20137;-62
2021/12/27 07:43:26;;;;;;;;;;;;;;;9.10;30.72;100943.25;1711190;82;20182;-62
2021/12/27 07:45:52;;;;;;;;;;;;;;;9.14;30.49;100946.67;1716997;82;21257;-62
2021/12/27 07:48:19;;;;;;;;;;;;;;;9.33;30.06;100946.91;1712097;82;20280;-63
2021/12/27 07:50:46;;;;;;;;;;;;;;;9.12;29.65;100947.79;1710975;82;20099;-76
2021/12/27 07:53:12;;;;;;;;;;;;;;;8.81;29.66;100950.89;1710717;82;20713;-63
2021/12/27 07:55:39;;;;;;;;;;;;;;;8.76;29.65;100942.75;1707361;82;20144;-65
2021/12/27 07:58:05;;;;;;;;;;;;;;;8.63;30.17;100940.55;1710507;82;21173;-63
2021/12/27 08:00:31;;;;;;;;;;;;;;;8.56;30.47;100939.56;1711176;82;20445;-64
2021/12/27 08:02:58;;;;;;;;;;;;;;;8.76;30.46;100942.27;1703648;82;20223;-63
2021/12/27 08:05:24;;;;;;;;;;;;;;;8.76;30.20;100934.47;1697792;83;20490;-63
2021/12/27 08:07:51;;;;;;;;;;;;;;;8.44;30.00;100938.16;1696880;83;20161;-65
2021/12/27 08:10:17;;;;;;;;;;;;;;;8.51;29.83;100943.89;1698019;83;21155;-62
2021/12/27 08:12:45;;;;;;;;;;;;;;;8.50;29.54;100946.16;1698912;83;20440;-61
2021/12/27 08:15:12;;;;;;;;;;;;;;;8.43;29.72;100947.73;1697621;83;20115;-61
2021/12/27 08:17:38;;;;;;;;;;;;;;;8.31;29.15;100945.03;1695891;83;20166;-62
2021/12/27 08:20:06;;;;;;;;;;;;;;;8.14;28.85;100941.47;1694729;83;20523;-72
2021/12/27 08:22:33;;;;;;;;;;;;;;;7.76;28.86;100940.81;1705208;83;21171;-63
2021/12/27 08:24:59;;;;;;;;;;;;;;;7.25;29.34;100946.61;1695319;83;20123;-75
2021/12/27 08:27:27;;;;;;;;;;;;;;;7.21;29.01;100946.09;1697184;83;20131;-64
2021/12/27 08:29:53;;;;;;;;;;;;;;;6.81;29.63;100941.19;1696387;83;20099;-75
2021/12/27 08:32:21;;;;;;;;;;;;;;;7.30;29.46;100937.91;1696071;83;21278;-63
2021/12/27 08:34:47;;;;;;;;;;;;;;;6.85;29.44;100940.43;1696796;83;21098;-66
2021/12/27 08:37:13;;;;;;;;;;;;;;;6.95;29.24;100939.92;1694871;83;20099;-65
2021/12/27 08:39:40;;;;;;;;;;;;;;;6.48;29.68;100937.34;1696004;83;21247;-65
2021/12/27 08:42:07;;;;;;;;;;;;;;;6.39;29.75;100942.05;1695017;83;20166;-66
2021/12/27 08:44:36;;;;;;;;;;;;;;;6.50;29.87;100936.72;1695889;83;20193;-64
2021/12/27 08:47:03;;;;;;;;;;;;;;;6.84;29.83;100937.02;1693691;83;21164;-67
2021/12/27 08:49:32;;;;;;;;;;;;;;;6.53;30.01;100936.44;1697370;83;20101;-65
2021/12/27 08:51:58;;;;;;;;;;;;;;;6.62;29.81;100942.55;1694849;83;20111;-71
2021/12/27 08:54:25;;;;;;;;;;;;;;;6.24;30.07;100939.06;1698926;82;20141;-67
2021/12/27 08:56:51;;;;;;;;;;;;;;;6.53;30.23;100935.95;1696805;83;20377;-65
2021/12/27 08:59:18;;;;;;;;;;;;;;;6.77;30.10;100935.95;1626378;86;21261;-74
2021/12/27 09:01:44;;;;;;;;;;;;;;;7.05;29.97;100940.23;1689130;83;21238;-63
2021/12/27 09:04:11;;;;;;;;;;;;;;;7.02;29.61;100937.10;1687230;83;20156;-67
2021/12/27 09:06:37;;;;;;;;;;;;;;;5.59;31.50;100948.61;1690315;83;20677;-65
2021/12/27 09:09:03;;;;;;;;;;;;;;;5.93;31.97;100943.10;1688754;83;20080;-73
2021/12/27 09:11:30;;;;;;;;;;;;;;;6.36;32.04;100942.32;1688925;83;21126;-63
2021/12/27 09:13:57;;;;;;;;;;;;;;;6.57;32.14;100939.90;1689646;83;20724;-63
2021/12/27 09:16:23;;;;;;;;;;;;;;;7.24;31.42;100943.20;1688957;83;20099;-73
2021/12/27 09:18:51;;;;;;;;;;;;;;;7.51;31.03;100955.83;1689762;83;20211;-62
2021/12/27 09:21:17;;;;;;;;;;;;;;;7.51;30.83;100947.56;1689920;83;20100;-71
2021/12/27 09:23:43;;;;;;;;;;;;;;;6.75;31.17;100952.14;1691043;83;21120;-64
2021/12/27 09:26:10;;;;;;;;;;;;;;;6.77;31.33;100956.69;1689138;83;20132;-65
2021/12/27 09:28:37;;;;;;;;;;;;;;;6.44;30.92;100954.94;1690011;83;20146;-73
2021/12/27 09:31:03;;;;;;;;;;;;;;;5.89;31.60;100958.53;1687761;83;20135;-63
2021/12/27 09:33:29;;;;;;;;;;;;;;;5.77;31.71;100964.78;1690438;83;20163;-72
2021/12/27 09:35:56;;;;;;;;;;;;;;;5.61;31.78;100961.43;1688870;83;21059;-63
2021/12/27 09:38:23;;;;;;;;;;;;;;;5.81;32.13;100956.61;1690937;83;20131;-63
2021/12/27 09:40:49;;;;;;;;;;;;;;;5.73;31.93;100959.54;1691949;83;20160;-64
2021/12/27 09:43:15;;;;;;;;;;;;;;;5.84;31.60;100957.64;1689433;83;20164;-64
2021/12/27 09:45:42;;;;;;;;;;;;;;;5.88;31.15;100958.67;1690512;83;20171;-65
2021/12/27 09:48:09;;;;;;;;;;;;;;;5.61;30.95;100960.95;1689249;83;22117;-64
2021/12/27 09:50:48;;;;;;;;;;;;;;;5.41;30.86;100961.02;1690155;83;20096;-64
2021/12/27 09:53:15;;;;;;;;;;;;;;;4.99;31.22;100959.86;1688990;83;20367;-75
2021/12/27 09:55:42;;;;;;;;;;;;;;;4.72;31.41;100956.05;1627451;87;20185;-66
2021/12/27 09:58:08;;;;;;;;;;;;;;;4.44;32.10;100953.66;1626158;86;20250;-64
2021/12/27 10:00:36;;;;;;;;;;;;;;;4.66;31.93;100966.07;1644729;86;21162;-62
2021/12/27 10:03:02;;;;;;;;;;;;;;;4.31;31.92;100965.91;1639714;86;20175;-71
2021/12/27 10:05:31;;;;;;;;;;;;;;;4.11;31.98;100976.09;1675173;84;20187;-66
2021/12/27 10:08:02;;;;;;;;;;;;;;;3.96;32.18;100973.45;1674561;84;20152;-62
2021/12/27 10:10:26;;;;;;;;;;;;;;;3.49;32.74;100980.61;1674285;84;20472;-62
2021/12/27 10:12:53;;;;;;;;;;;;;;;3.46;33.79;100980.02;1674895;84;21174;-65
2021/12/27 10:15:22;;;;;;;;;;;;;;;3.29;34.37;100987.27;1674380;84;20168;-74
2021/12/27 10:17:54;;;;;;;;;;;;;;;3.31;34.12;100994.91;1673998;84;21284;-75
2021/12/27 10:20:24;;;;;;;;;;;;;;;3.37;34.07;101003.44;1675350;84;20539;-63
2021/12/27 10:22:54;;;;;;;;;;;;;;;3.29;34.25;100999.34;1671269;84;20389;-69
2021/12/27 10:25:23;;;;;;;;;;;;;;;3.23;34.38;100996.78;1674021;84;21143;-74
2021/12/27 10:27:57;;;;;;;;;;;;;;;3.30;34.48;100997.14;1675594;84;20538;-64
2021/12/27 10:30:23;;;;;;;;;;;;;;;3.26;34.86;100998.28;1673593;84;20403;-62
2021/12/27 10:33:11;;;;;;;;;;;;;;;3.41;34.81;100995.38;1679346;84;20101;-63
2021/12/27 10:35:40;;;;;;;;;;;;;;;3.43;34.60;100998.30;1675198;84;20114;-68
2021/12/27 10:38:23;;;;;;;;;;;;;;;3.40;34.56;100998.05;1675540;84;21148;-61
2021/12/27 10:40:57;;;;;;;;;;;;;;;3.39;34.77;101002.39;1676129;84;20088;-63
2021/12/27 10:43:36;;;;;;;;;;;;;;;3.49;34.63;101002.98;1677434;84;20155;-66
2021/12/27 10:46:04;;;;;;;;;;;;;;;3.31;34.71;101002.16;1674711;84;38626;-63
2021/12/27 10:48:34;;;;;;;;;;;;;;;3.21;34.85;101008.13;1674074;84;20164;-66
2021/12/27 10:51:01;;;;;;;;;;;;;;;3.00;35.38;101002.39;1674390;84;22204;-75
2021/12/27 10:53:27;;;;;;;;;;;;;;;3.08;35.25;101004.39;1674422;84;20159;-63
2021/12/27 10:55:54;;;;;;;;;;;;;;;2.90;35.41;101008.69;1634493;84;20407;-65
2021/12/27 10:58:25;;;;;;;;;;;;;;;2.61;35.55;101008.73;1675087;84;20141;-71
2021/12/27 11:00:58;;;;;;;;;;;;;;;2.42;35.95;101001.55;1675970;84;20239;-74
2021/12/27 11:03:32;;;;;;;;;;;;;;;2.64;36.14;101004.19;1675506;84;21116;-66
2021/12/27 11:05:59;;;;;;;;;;;;;;;2.77;36.18;101007.16;1673566;84;20236;-64
2021/12/27 11:08:27;;;;;;;;;;;;;;;2.73;36.11;101014.73;1673135;84;20145;-65
2021/12/27 11:10:54;;;;;;;;;;;;;;;2.53;36.12;101017.02;1674620;84;20164;-66
2021/12/27 11:13:20;;;;;;;;;;;;;;;2.41;36.29;101016.17;1674780;84;20100;-65
2021/12/27 11:15:47;;;;;;;;;;;;;;;2.54;36.22;101014.83;1676516;84;21177;-65
2021/12/27 11:18:15;;;;;;;;;;;;;;;2.35;36.55;101028.20;1673895;84;20155;-73
2021/12/27 11:20:47;;;;;;;;;;;;;;;2.60;36.20;101018.69;1675308;84;20220;-65
2021/12/27 11:23:14;;;;;;;;;;;;;;;2.40;36.31;101019.68;1674018;84;20128;-66
2021/12/27 11:25:46;;;;;;;;;;;;;;;2.37;36.33;101025.52;1673725;84;20236;-70
2021/12/27 11:28:34;;;;;;;;;;;;;;;2.33;36.44;101018.95;1672907;84;22212;-73
2021/12/27 11:31:07;;;;;;;;;;;;;;;2.36;36.38;101018.73;1672667;84;20223;-68
2021/12/27 11:33:53;;;;;;;;;;;;;;;2.25;36.60;101023.36;1675553;84;20134;-64
2021/12/27 11:36:28;;;;;;;;;;;;;;;2.40;36.34;101027.87;1674551;84;20443;-65
2021/12/27 11:38:55;;;;;;;;;;;;;;;2.41;36.15;101025.64;1674222;84;20451;-65
2021/12/27 11:41:31;;;;;;;;;;;;;;;2.29;36.43;101023.97;1674505;84;21155;-65
2021/12/27 11:44:03;;;;;;;;;;;;;;;1.98;36.59;101028.73;1673984;84;20745;-72
2021/12/27 11:46:56;;;;;;;;;;;;;;;2.23;36.17;101020.06;1673928;84;20529;-68
2021/12/27 11:49:33;;;;;;;;;;;;;;;2.08;36.04;101023.27;1675313;84;20207;-77
2021/12/27 11:52:18;;;;;;;;;;;;;;;1.75;36.24;101025.67;1675067;84;20218;-65
2021/12/27 11:55:05;;;;;;;;;;;;;;;1.38;36.88;101024.34;1672432;84;21187;-63
2021/12/27 11:57:54;;;;;;;;;;;;;;;1.02;37.59;101031.02;1675997;84;20192;-65
2021/12/27 12:00:24;;;;;;;;;;;;;;;1.09;37.57;101030.97;1675653;84;20339;-77
2021/12/27 12:02:56;;;;;;;;;;;;;;;0.96;37.35;101039.15;1675946;84;20729;-63
2021/12/27 12:05:47;;;;;;;;;;;;;;;1.16;37.28;101037.34;1674716;84;20239;-63
2021/12/27 12:08:18;;;;;;;;;;;;;;;0.92;37.09;101041.09;1672486;84;21133;-75
2021/12/27 12:11:02;;;;;;;;;;;;;;;0.57;37.27;101043.84;1671127;84;20346;-65
2021/12/27 12:13:31;;;;;;;;;;;;;;;0.19;37.29;101045.83;1673656;84;20313;-64
2021/12/27 12:16:00;;;;;;;;;;;;;;;0.02;37.48;101044.33;1671363;84;20096;-77
2021/12/27 12:18:27;;;;;;;;;;;;;;;0.06;37.45;101050.91;1673578;84;20489;-63
2021/12/27 12:20:54;;;;;;;;;;;;;;;0.01;37.65;101051.67;1672615;84;21154;-64
2021/12/27 12:23:21;;;;;;;;;;;;;;;-0.17;38.06;101054.08;1674016;84;20129;-64
2021/12/27 12:25:47;;;;;;;;;;;;;;;-0.21;38.24;101057.75;1674651;84;20434;-77
2021/12/27 12:28:15;;;;;;;;;;;;;;;-0.29;38.50;101055.19;1650388;85;20359;-66
2021/12/27 12:30:43;;;;;;;;;;;;;;;-0.19;38.59;101062.30;1674604;84;20146;-63
2021/12/27 12:33:12;;;;;;;;;;;;;;;-0.17;38.61;101068.99;1674117;84;21162;-65
2021/12/27 12:35:42;;;;;;;;;;;;;;;-0.19;38.85;101067.00;1674454;84;20121;-64
2021/12/27 12:38:31;;;;;;;;;;;;;;;-0.30;39.04;101070.21;1673754;84;21274;-64
2021/12/27 12:41:15;;;;;;;;;;;;;;;-0.54;39.20;101069.11;1673133;85;20228;-65
2021/12/27 12:43:52;;;;;;;;;;;;;;;-1.01;39.81;101070.98;1673678;84;20231;-65
2021/12/27 12:46:24;;;;;;;;;;;;;;;-0.92;40.02;101070.91;1674031;84;21164;-67
2021/12/27 12:49:06;;;;;;;;;;;;;;;-1.10;40.51;101072.81;1674139;84;20486;-68
2021/12/27 12:51:50;;;;;;;;;;;;;;;-0.67;40.47;101078.44;1674088;84;21015;-65
2021/12/27 12:54:26;;;;;;;;;;;;;;;-0.54;40.06;101074.23;1671613;84;20117;-76